Time;durP1;ratioP1;P1;durP2;ratioP2;P2;SDS_P1;SDS_P2;PMS_P1;PMS_P2;Temp;Humidity;BMP_temperature;BMP_pressure;BME280_temperature;BME280_humidity;BME280_pressure;Samples;Min_cycle;Max_cycle;Signal;HPM_P1;HPM_P2
2022/01/25 00:24:33;;;;;;;;;;;-4.00;99.90;;;;;;5085680;28;20404;-74
2022/01/25 00:27:10;;;;;;;;;;;-3.90;99.90;;;;;;5080883;28;20391;-74
2022/01/25 00:30:10;;;;;;;;;;;-3.80;99.90;;;;;;5071142;28;19915;-73
2022/01/25 00:32:21;;;;;;;;;;;-3.70;99.90;;;;;;5080154;28;19931;-74
2022/01/25 00:34:47;;;;;;;;;;;-3.60;99.90;;;;;;5073115;28;20376;-73
2022/01/25 00:37:13;;;;;;;;;;;-3.60;99.90;;;;;;5074800;28;19915;-73
2022/01/25 00:39:38;;;;;;;;;;;-3.70;99.90;;;;;;5074620;28;19924;-73
2022/01/25 00:42:08;;;;;;;;;;;-3.60;99.90;;;;;;5076912;28;20361;-72
2022/01/25 00:44:35;;;;;;;;;;;-3.70;99.90;;;;;;5070564;28;19912;-72
2022/01/25 00:47:02;;;;;;;;;;;-3.70;99.90;;;;;;5079400;28;19919;-73
2022/01/25 00:49:29;;;;;;;;;;;-3.70;99.90;;;;;;5072150;28;19966;-72
2022/01/25 00:54:29;;;;;;;;;;;-3.80;99.90;;;;;;5076681;28;19916;-73
2022/01/25 00:56:55;;;;;;;;;;;-3.80;99.90;;;;;;5076881;28;20371;-74
2022/01/25 00:59:25;;;;;;;;;;;-3.90;99.90;;;;;;5082101;28;19990;-73
2022/01/25 01:01:53;;;;;;;;;;;-3.70;99.90;;;;;;5089149;28;19914;-72
2022/01/25 01:04:19;;;;;;;;;;;-3.70;99.90;;;;;;5090164;28;20391;-73
2022/01/25 01:06:46;;;;;;;;;;;-3.80;99.90;;;;;;5088876;28;19915;-73
2022/01/25 01:09:12;;;;;;;;;;;-3.80;99.90;;;;;;5081036;28;19908;-72
2022/01/25 01:11:46;;;;;;;;;;;-3.70;99.90;;;;;;5075205;28;20373;-73
2022/01/25 01:14:37;;;;;;;;;;;-3.90;99.90;;;;;;5070570;28;20444;-73
2022/01/25 01:30:37;;;;;;;;;;;-4.10;99.90;;;;;;5088029;28;19987;-73
2022/01/25 01:46:27;;;;;;;;;;;-4.40;99.90;;;;;;5093965;28;20361;-73
2022/01/25 01:48:57;;;;;;;;;;;-4.30;99.90;;;;;;5074025;28;20373;-73
2022/01/25 01:51:36;;;;;;;;;;;-4.20;99.90;;;;;;5074166;28;19920;-73
2022/01/25 01:54:07;;;;;;;;;;;-4.30;99.90;;;;;;5090142;28;20434;-73
2022/01/25 01:56:33;;;;;;;;;;;-4.20;99.90;;;;;;5076375;28;19913;-73
2022/01/25 01:59:00;;;;;;;;;;;-4.30;99.90;;;;;;5073876;28;19919;-72
2022/01/25 02:01:26;;;;;;;;;;;-4.20;99.90;;;;;;5086817;28;19961;-73
2022/01/25 02:03:53;;;;;;;;;;;-4.20;99.90;;;;;;5092885;28;20280;-73
2022/01/25 02:06:18;;;;;;;;;;;-4.40;99.90;;;;;;5093200;28;20322;-73
2022/01/25 02:08:44;;;;;;;;;;;-4.30;99.90;;;;;;5093150;28;19908;-73
2022/01/25 02:11:10;;;;;;;;;;;-4.10;99.90;;;;;;5093164;28;19908;-74
2022/01/25 02:13:37;;;;;;;;;;;-4.10;99.90;;;;;;5091176;28;19908;-72
2022/01/25 02:16:07;;;;;;;;;;;-4.00;99.90;;;;;;5092287;28;20416;-72
2022/01/25 02:24:01;;;;;;;;;;;-4.00;99.90;;;;;;5077891;28;19915;-72
2022/01/25 02:26:30;;;;;;;;;;;-3.80;99.90;;;;;;5081066;28;19912;-73
2022/01/25 02:28:56;;;;;;;;;;;-3.70;99.90;;;;;;5090109;28;20007;-74
2022/01/25 02:31:21;;;;;;;;;;;-3.60;99.90;;;;;;5092793;28;20446;-72
2022/01/25 02:33:47;;;;;;;;;;;-3.60;99.90;;;;;;5092274;28;19919;-72
2022/01/25 02:36:15;;;;;;;;;;;-3.60;99.90;;;;;;5092434;28;19913;-73
2022/01/25 02:38:40;;;;;;;;;;;-3.70;99.90;;;;;;5092724;28;19977;-73
2022/01/25 02:41:06;;;;;;;;;;;-3.60;99.90;;;;;;5092427;28;20380;-73
2022/01/25 02:43:34;;;;;;;;;;;-3.80;99.90;;;;;;5092165;28;19916;-72
2022/01/25 02:48:50;;;;;;;;;;;-4.10;99.90;;;;;;5073304;28;19908;-73
2022/01/25 02:51:16;;;;;;;;;;;-4.30;99.90;;;;;;5072874;28;20361;-73
2022/01/25 02:53:41;;;;;;;;;;;-4.30;99.90;;;;;;5081870;28;19963;-73
2022/01/25 02:56:07;;;;;;;;;;;-4.30;99.90;;;;;;5074540;28;19966;-73
2022/01/25 02:58:32;;;;;;;;;;;-4.40;99.90;;;;;;5072984;28;19954;-73
2022/01/25 03:00:58;;;;;;;;;;;-4.40;99.90;;;;;;5071486;28;19920;-73
2022/01/25 03:03:23;;;;;;;;;;;-4.40;99.90;;;;;;5072806;28;19962;-73
2022/01/25 03:05:49;;;;;;;;;;;-4.40;99.90;;;;;;5072667;28;19934;-73
2022/01/25 03:08:15;;;;;;;;;;;-4.50;99.90;;;;;;5072508;28;19919;-72
2022/01/25 03:10:42;;;;;;;;;;;-4.60;99.90;;;;;;5072645;28;19908;-74
2022/01/25 03:13:13;;;;;;;;;;;-4.70;99.90;;;;;;5071997;28;19919;-73
2022/01/25 03:18:25;;;;;;;;;;;-4.60;99.90;;;;;;5072475;28;19908;-74
2022/01/25 03:21:00;;;;;;;;;;;-4.70;99.90;;;;;;5085328;28;20046;-72
2022/01/25 03:23:28;;;;;;;;;;;-4.60;99.90;;;;;;5078742;28;19908;-72
2022/01/25 03:25:54;;;;;;;;;;;-4.70;99.90;;;;;;5079891;28;19909;-73
2022/01/25 03:28:20;;;;;;;;;;;-4.70;99.90;;;;;;5072200;28;19909;-73
2022/01/25 03:30:45;;;;;;;;;;;-4.70;99.90;;;;;;5072333;28;19915;-74
2022/01/25 03:33:11;;;;;;;;;;;-4.60;99.90;;;;;;5071663;28;20362;-73
2022/01/25 03:35:37;;;;;;;;;;;-4.50;99.90;;;;;;5071979;28;19916;-70
2022/01/25 03:38:03;;;;;;;;;;;-4.50;99.90;;;;;;5071961;28;20266;-71
2022/01/25 03:40:29;;;;;;;;;;;-4.60;99.90;;;;;;5072114;28;19909;-70
2022/01/25 03:42:55;;;;;;;;;;;-4.60;99.90;;;;;;5071957;28;19909;-71
2022/01/25 03:45:27;;;;;;;;;;;-4.30;99.90;;;;;;5071793;28;19940;-71
2022/01/25 03:50:43;;;;;;;;;;;-4.80;99.90;;;;;;5057601;28;19931;-73
2022/01/25 03:53:09;;;;;;;;;;;-4.90;99.90;;;;;;5076265;28;19918;-73
2022/01/25 03:55:35;;;;;;;;;;;-4.80;99.90;;;;;;5077513;28;20037;-72
2022/01/25 03:58:00;;;;;;;;;;;-4.70;99.90;;;;;;5071812;28;20278;-73
2022/01/25 04:00:26;;;;;;;;;;;-4.80;99.90;;;;;;5071703;28;19909;-72
2022/01/25 04:03:01;;;;;;;;;;;-4.90;99.90;;;;;;5071803;28;19913;-72
2022/01/25 04:05:47;;;;;;;;;;;-5.00;99.90;;;;;;5071503;28;19912;-74
2022/01/25 04:08:13;;;;;;;;;;;-4.90;99.90;;;;;;5071604;28;19946;-72
2022/01/25 04:10:39;;;;;;;;;;;-4.90;99.90;;;;;;5071609;28;19962;-73
2022/01/25 04:13:05;;;;;;;;;;;-5.00;99.90;;;;;;5071274;28;19942;-73
2022/01/25 04:15:31;;;;;;;;;;;-5.20;99.90;;;;;;5071300;28;20455;-73
2022/01/25 04:20:53;;;;;;;;;;;-4.90;99.90;;;;;;5063557;28;19914;-72
2022/01/25 04:26:03;;;;;;;;;;;-4.70;99.90;;;;;;5072453;28;20304;-73
2022/01/25 04:28:28;;;;;;;;;;;-4.70;99.90;;;;;;5071693;28;19909;-72
2022/01/25 04:30:54;;;;;;;;;;;-4.60;99.90;;;;;;5071528;28;19962;-72
2022/01/25 04:33:24;;;;;;;;;;;-4.80;99.90;;;;;;5070841;28;19920;-72
2022/01/25 04:36:22;;;;;;;;;;;-4.90;99.90;;;;;;5076130;28;19916;-73
2022/01/25 04:49:46;;;;;;;;;;;-5.00;99.90;;;;;;5090862;28;19916;-72
2022/01/25 04:52:16;;;;;;;;;;;-4.90;99.90;;;;;;5085129;28;20305;-74
2022/01/25 05:00:06;;;;;;;;;;;-4.80;99.90;;;;;;5072522;28;19969;-73
2022/01/25 05:05:10;;;;;;;;;;;-5.10;99.90;;;;;;5094395;28;20328;-72
2022/01/25 05:07:50;;;;;;;;;;;-5.00;99.90;;;;;;5094304;28;19930;-73
2022/01/25 05:10:16;;;;;;;;;;;-4.80;99.90;;;;;;5093088;28;19908;-74
2022/01/25 05:12:47;;;;;;;;;;;-4.80;99.90;;;;;;5093184;28;19915;-72
2022/01/25 05:15:23;;;;;;;;;;;-5.00;99.90;;;;;;5091440;28;19916;-73
2022/01/25 05:23:17;;;;;;;;;;;-5.20;99.90;;;;;;5080121;28;20057;-72
2022/01/25 05:25:43;;;;;;;;;;;-5.30;99.90;;;;;;5081256;28;20395;-72
2022/01/25 05:28:08;;;;;;;;;;;-5.30;99.90;;;;;;5078135;28;19914;-73
2022/01/25 05:30:34;;;;;;;;;;;-5.10;99.90;;;;;;5077924;28;19918;-72
2022/01/25 05:32:59;;;;;;;;;;;-5.00;99.90;;;;;;5072620;28;19948;-72
2022/01/25 05:35:25;;;;;;;;;;;-4.90;99.90;;;;;;5073402;28;19916;-72
2022/01/25 05:37:50;;;;;;;;;;;-4.80;99.90;;;;;;5074468;28;19915;-74
2022/01/25 05:40:27;;;;;;;;;;;-4.80;99.90;;;;;;5074249;28;19908;-72
2022/01/25 05:45:50;;;;;;;;;;;-4.80;99.90;;;;;;5074254;28;20004;-73
2022/01/25 05:48:16;;;;;;;;;;;-4.70;99.90;;;;;;5087377;28;19908;-72
2022/01/25 05:50:41;;;;;;;;;;;-4.80;99.90;;;;;;5094101;28;19930;-72
2022/01/25 05:53:07;;;;;;;;;;;-5.10;99.90;;;;;;5090583;28;19908;-73
2022/01/25 05:55:32;;;;;;;;;;;-5.30;99.90;;;;;;5077074;28;19912;-72
2022/01/25 05:57:58;;;;;;;;;;;-5.30;99.90;;;;;;5074090;28;19908;-72
2022/01/25 06:00:23;;;;;;;;;;;-5.40;99.90;;;;;;5073967;28;20384;-72
2022/01/25 06:02:54;;;;;;;;;;;-5.40;99.90;;;;;;5073826;28;19916;-73
2022/01/25 06:05:19;;;;;;;;;;;-5.30;99.90;;;;;;5073541;28;19915;-73
2022/01/25 06:07:44;;;;;;;;;;;-5.20;99.90;;;;;;5073810;28;19949;-72
2022/01/25 06:10:10;;;;;;;;;;;-5.40;99.90;;;;;;5073570;28;19909;-73
2022/01/25 06:12:36;;;;;;;;;;;-5.30;99.90;;;;;;5073695;28;20007;-72
2022/01/25 06:15:01;;;;;;;;;;;-5.10;99.90;;;;;;5073248;28;19916;-73
2022/01/25 06:17:27;;;;;;;;;;;-5.20;99.90;;;;;;5073691;28;19913;-72
2022/01/25 06:19:52;;;;;;;;;;;-5.40;99.90;;;;;;5073687;28;19978;-72
2022/01/25 06:22:18;;;;;;;;;;;-5.40;99.90;;;;;;5075195;28;19955;-72
2022/01/25 06:24:43;;;;;;;;;;;-5.40;99.90;;;;;;5079948;28;19909;-72
2022/01/25 06:27:09;;;;;;;;;;;-5.20;99.90;;;;;;5076518;28;20370;-72
2022/01/25 06:29:34;;;;;;;;;;;-5.20;99.90;;;;;;5073465;28;19912;-72
2022/01/25 06:32:00;;;;;;;;;;;-5.10;99.90;;;;;;5073367;28;19954;-73
2022/01/25 06:34:26;;;;;;;;;;;-5.30;99.90;;;;;;5072625;28;19965;-74
2022/01/25 06:36:51;;;;;;;;;;;-5.50;99.90;;;;;;5073461;28;19919;-72
2022/01/25 06:39:17;;;;;;;;;;;-5.50;99.90;;;;;;5073195;28;19912;-72
2022/01/25 06:41:42;;;;;;;;;;;-5.50;99.90;;;;;;5073316;28;20372;-72
2022/01/25 06:44:08;;;;;;;;;;;-5.40;99.90;;;;;;5087929;28;19908;-73
2022/01/25 06:46:34;;;;;;;;;;;-5.50;99.90;;;;;;5092373;28;19923;-72
2022/01/25 06:48:59;;;;;;;;;;;-5.50;99.90;;;;;;5092367;28;19915;-72
2022/01/25 06:51:27;;;;;;;;;;;-5.30;99.90;;;;;;5092789;28;19912;-73
2022/01/25 06:53:52;;;;;;;;;;;-5.20;99.90;;;;;;5081424;28;19908;-73
2022/01/25 06:56:18;;;;;;;;;;;-5.10;99.90;;;;;;5079809;28;20285;-72
2022/01/25 06:58:44;;;;;;;;;;;-5.10;99.90;;;;;;5073315;28;20284;-72
2022/01/25 07:01:10;;;;;;;;;;;-5.00;99.90;;;;;;5073180;28;19909;-72
2022/01/25 07:03:35;;;;;;;;;;;-5.00;99.90;;;;;;5072764;28;20250;-72
2022/01/25 07:06:01;;;;;;;;;;;-5.10;99.90;;;;;;5072854;28;20327;-72
2022/01/25 07:08:27;;;;;;;;;;;-4.90;99.90;;;;;;5073208;28;19909;-72
2022/01/25 07:10:53;;;;;;;;;;;-4.70;99.90;;;;;;5073409;28;19916;-73
2022/01/25 07:13:18;;;;;;;;;;;-4.70;99.90;;;;;;5072739;28;20300;-72
2022/01/25 07:15:44;;;;;;;;;;;-4.70;99.90;;;;;;5072669;28;19993;-72
2022/01/25 07:18:09;;;;;;;;;;;-4.90;99.90;;;;;;5072898;28;19915;-73
2022/01/25 07:20:35;;;;;;;;;;;-5.00;99.90;;;;;;5072827;28;19913;-73
2022/01/25 07:23:00;;;;;;;;;;;-5.00;99.90;;;;;;5082912;28;19908;-72
2022/01/25 07:25:26;;;;;;;;;;;-5.00;99.90;;;;;;5077922;28;19908;-72
2022/01/25 07:27:52;;;;;;;;;;;-4.90;99.90;;;;;;5072741;28;19916;-72
2022/01/25 07:30:17;;;;;;;;;;;-4.80;99.90;;;;;;5072234;28;19912;-72
2022/01/25 07:32:43;;;;;;;;;;;-4.80;99.90;;;;;;5078463;28;19962;-73
2022/01/25 07:35:08;;;;;;;;;;;-4.80;99.90;;;;;;5091370;28;20388;-72
2022/01/25 07:37:34;;;;;;;;;;;-4.70;99.90;;;;;;5091649;28;19969;-72
2022/01/25 07:39:59;;;;;;;;;;;-4.60;99.90;;;;;;5091851;28;19908;-73
2022/01/25 07:42:27;;;;;;;;;;;-4.60;99.90;;;;;;5092240;28;19931;-72
2022/01/25 07:44:53;;;;;;;;;;;-4.70;99.90;;;;;;5091930;28;19908;-72
2022/01/25 07:47:18;;;;;;;;;;;-4.50;99.90;;;;;;5092340;28;20006;-72
2022/01/25 07:49:44;;;;;;;;;;;-4.30;99.90;;;;;;5092155;28;19912;-73
2022/01/25 07:52:09;;;;;;;;;;;-4.10;99.90;;;;;;5089077;28;19908;-72
2022/01/25 07:54:35;;;;;;;;;;;-3.90;99.90;;;;;;5079323;28;20396;-72
2022/01/25 07:57:00;;;;;;;;;;;-3.80;99.90;;;;;;5077439;28;19916;-72
2022/01/25 07:59:26;;;;;;;;;;;-3.90;99.90;;;;;;5072648;28;19908;-72
2022/01/25 08:01:51;;;;;;;;;;;-3.90;99.90;;;;;;5072565;28;19909;-72
2022/01/25 08:04:18;;;;;;;;;;;-3.80;99.90;;;;;;5071940;28;19913;-72
2022/01/25 08:06:43;;;;;;;;;;;-3.80;99.90;;;;;;5072306;28;19909;-72
2022/01/25 08:09:09;;;;;;;;;;;-3.60;99.90;;;;;;5070992;28;19931;-73
2022/01/25 08:11:35;;;;;;;;;;;-3.60;99.90;;;;;;5072217;28;19908;-71
2022/01/25 08:14:12;;;;;;;;;;;-3.50;99.90;;;;;;5071844;28;19923;-72
2022/01/25 08:16:42;;;;;;;;;;;-3.40;99.90;;;;;;5072525;28;19942;-72
2022/01/25 08:19:07;;;;;;;;;;;-3.30;99.90;;;;;;5072579;28;20300;-73
2022/01/25 08:21:33;;;;;;;;;;;-3.10;99.90;;;;;;5072380;28;20012;-73
2022/01/25 08:23:58;;;;;;;;;;;-3.30;99.90;;;;;;5081553;28;19908;-72
2022/01/25 08:26:24;;;;;;;;;;;-3.20;99.90;;;;;;5071204;28;19920;-72
2022/01/25 08:28:49;;;;;;;;;;;-3.10;99.90;;;;;;5072012;28;19952;-72
2022/01/25 08:31:15;;;;;;;;;;;-2.70;99.90;;;;;;5072431;28;20356;-73
2022/01/25 08:33:40;;;;;;;;;;;-2.40;99.90;;;;;;5073213;28;20361;-73
2022/01/25 08:36:06;;;;;;;;;;;-1.90;99.90;;;;;;5076287;28;19920;-73
2022/01/25 08:38:32;;;;;;;;;;;-0.20;99.90;;;;;;5076337;28;20003;-73
2022/01/25 08:40:57;;;;;;;;;;;0.60;99.90;;;;;;5095864;28;19916;-73
2022/01/25 08:43:24;;;;;;;;;;;1.70;99.90;;;;;;5095241;28;19915;-73
2022/01/25 08:45:50;;;;;;;;;;;2.10;99.90;;;;;;5095464;28;19912;-73
2022/01/25 08:48:15;;;;;;;;;;;2.50;99.90;;;;;;5096007;28;19999;-73
2022/01/25 08:50:41;;;;;;;;;;;3.10;99.90;;;;;;5095564;28;19908;-71
2022/01/25 08:53:07;;;;;;;;;;;2.40;99.90;;;;;;5086982;28;19916;-71
2022/01/25 08:55:33;;;;;;;;;;;2.30;99.90;;;;;;5083982;28;19919;-71
2022/01/25 08:57:58;;;;;;;;;;;2.80;99.90;;;;;;5076280;28;19908;-72
2022/01/25 09:00:24;;;;;;;;;;;4.00;99.90;;;;;;5076066;28;19908;-73
2022/01/25 09:02:49;;;;;;;;;;;4.40;99.90;;;;;;5076142;28;19932;-72
2022/01/25 09:05:15;;;;;;;;;;;4.80;99.90;;;;;;5075566;28;20018;-73
2022/01/25 09:07:40;;;;;;;;;;;5.70;99.80;;;;;;5076407;28;20262;-72
2022/01/25 09:10:08;;;;;;;;;;;6.50;97.30;;;;;;5076660;28;19917;-72
2022/01/25 09:12:34;;;;;;;;;;;7.00;96.70;;;;;;5086538;28;20277;-73
2022/01/25 09:14:59;;;;;;;;;;;7.40;94.80;;;;;;5095324;28;19916;-74
2022/01/25 09:17:25;;;;;;;;;;;7.50;94.00;;;;;;5095405;28;19914;-73
2022/01/25 09:19:50;;;;;;;;;;;7.80;93.50;;;;;;5095939;28;19908;-72
2022/01/25 09:22:16;;;;;;;;;;;7.80;92.60;;;;;;5092150;28;20460;-73
2022/01/25 09:24:41;;;;;;;;;;;8.10;92.80;;;;;;5084280;28;19914;-73
2022/01/25 09:27:08;;;;;;;;;;;8.80;91.30;;;;;;5080154;28;19997;-72
2022/01/25 09:29:34;;;;;;;;;;;9.20;90.50;;;;;;5086136;28;19962;-73
2022/01/25 09:31:59;;;;;;;;;;;9.10;91.40;;;;;;5075097;28;20187;-72
2022/01/25 09:34:27;;;;;;;;;;;10.00;86.30;;;;;;5074176;28;19913;-72
2022/01/25 09:36:53;;;;;;;;;;;9.80;88.80;;;;;;5074322;28;20372;-72
2022/01/25 09:39:19;;;;;;;;;;;10.40;85.60;;;;;;5074049;28;19999;-73
2022/01/25 09:41:45;;;;;;;;;;;10.30;84.40;;;;;;5074287;28;19915;-72
2022/01/25 09:44:11;;;;;;;;;;;10.60;83.30;;;;;;5073773;28;19909;-73
2022/01/25 09:46:39;;;;;;;;;;;11.60;81.40;;;;;;5073559;28;20003;-72
2022/01/25 09:49:05;;;;;;;;;;;11.80;78.60;;;;;;5074845;28;19951;-73
2022/01/25 09:51:30;;;;;;;;;;;11.50;80.00;;;;;;5074496;28;20296;-72
2022/01/25 09:53:56;;;;;;;;;;;11.70;77.80;;;;;;5084958;28;19995;-73
2022/01/25 09:56:21;;;;;;;;;;;11.90;77.10;;;;;;5074718;28;19934;-72
2022/01/25 09:58:47;;;;;;;;;;;11.90;77.80;;;;;;5074462;28;19920;-74
2022/01/25 10:01:14;;;;;;;;;;;12.20;76.60;;;;;;5074652;28;19962;-73
2022/01/25 10:03:42;;;;;;;;;;;13.00;74.70;;;;;;5086509;28;19954;-73
2022/01/25 10:06:15;;;;;;;;;;;13.30;72.10;;;;;;5093435;28;19912;-74
2022/01/25 10:08:41;;;;;;;;;;;13.20;73.70;;;;;;5093487;28;20140;-73
2022/01/25 10:11:11;;;;;;;;;;;13.10;73.10;;;;;;5093413;28;19912;-73
2022/01/25 10:13:37;;;;;;;;;;;13.40;73.80;;;;;;5092039;28;19943;-73
2022/01/25 10:16:08;;;;;;;;;;;13.50;71.60;;;;;;5085364;28;19951;-73
2022/01/25 10:18:45;;;;;;;;;;;12.70;74.80;;;;;;5093068;28;20369;-73
2022/01/25 10:21:31;;;;;;;;;;;13.70;71.30;;;;;;5093044;28;20387;-73
2022/01/25 10:24:15;;;;;;;;;;;13.90;70.30;;;;;;5082561;28;19912;-73
2022/01/25 10:26:42;;;;;;;;;;;13.80;69.20;;;;;;5076295;28;19915;-73
2022/01/25 10:29:08;;;;;;;;;;;14.30;68.40;;;;;;5073495;28;19916;-74
2022/01/25 10:31:41;;;;;;;;;;;13.80;71.80;;;;;;5073376;28;20345;-73
2022/01/25 10:34:07;;;;;;;;;;;13.90;67.80;;;;;;5072820;28;19962;-73
2022/01/25 10:36:34;;;;;;;;;;;13.90;69.60;;;;;;5073158;28;20270;-73
2022/01/25 10:38:59;;;;;;;;;;;12.70;71.10;;;;;;5073808;28;19915;-73
2022/01/25 10:41:26;;;;;;;;;;;13.40;71.00;;;;;;5073444;28;19908;-73
2022/01/25 10:43:53;;;;;;;;;;;13.80;70.50;;;;;;5073020;28;19915;-74
2022/01/25 10:46:25;;;;;;;;;;;12.90;70.50;;;;;;5073229;28;19915;-73
2022/01/25 10:48:54;;;;;;;;;;;13.30;68.70;;;;;;5073205;28;20365;-73
2022/01/25 10:51:22;;;;;;;;;;;12.70;68.70;;;;;;5073331;28;19920;-74
2022/01/25 10:54:17;;;;;;;;;;;12.00;69.70;;;;;;5081988;28;19918;-73
2022/01/25 10:56:42;;;;;;;;;;;11.80;69.80;;;;;;5070724;28;19912;-74
2022/01/25 10:59:09;;;;;;;;;;;10.50;75.30;;;;;;5092132;28;19908;-73
2022/01/25 11:01:38;;;;;;;;;;;9.00;79.30;;;;;;5092486;28;19908;-73
2022/01/25 11:04:11;;;;;;;;;;;8.60;82.60;;;;;;5091414;28;19951;-74
2022/01/25 11:06:37;;;;;;;;;;;7.00;88.40;;;;;;5092095;28;19954;-73
2022/01/25 11:09:04;;;;;;;;;;;6.20;91.40;;;;;;5091867;28;19919;-73
2022/01/25 11:11:34;;;;;;;;;;;6.20;91.80;;;;;;5091969;28;19919;-73
2022/01/25 11:14:50;;;;;;;;;;;6.10;91.90;;;;;;5091259;28;19995;-73
2022/01/25 11:16:48;;;;;;;;;;;6.60;91.50;;;;;;5091579;28;19916;-72
2022/01/25 11:19:14;;;;;;;;;;;7.40;90.00;;;;;;5091710;28;19999;-73
2022/01/25 11:21:42;;;;;;;;;;;8.00;88.80;;;;;;5091056;28;19908;-72
2022/01/25 11:24:07;;;;;;;;;;;7.50;89.60;;;;;;5082897;28;19918;-72
2022/01/25 11:26:33;;;;;;;;;;;6.90;90.40;;;;;;5071947;28;20277;-73
2022/01/25 11:28:58;;;;;;;;;;;7.50;90.40;;;;;;5071960;28;19915;-73
2022/01/25 11:31:24;;;;;;;;;;;7.70;89.10;;;;;;5072077;28;20285;-72
2022/01/25 11:33:51;;;;;;;;;;;6.60;90.90;;;;;;5071576;28;19909;-72
2022/01/25 11:36:17;;;;;;;;;;;5.40;93.10;;;;;;5071897;28;19991;-73
2022/01/25 11:38:45;;;;;;;;;;;4.90;94.40;;;;;;5071741;28;19954;-72
2022/01/25 11:41:11;;;;;;;;;;;4.40;94.60;;;;;;5071993;28;19909;-72
2022/01/25 11:43:37;;;;;;;;;;;4.30;95.40;;;;;;5071572;28;20282;-72
2022/01/25 11:46:04;;;;;;;;;;;4.30;95.90;;;;;;5071618;28;20405;-72
2022/01/25 11:48:34;;;;;;;;;;;4.10;96.30;;;;;;5072704;28;19920;-72
2022/01/25 11:51:01;;;;;;;;;;;4.00;96.10;;;;;;5071876;28;19908;-72
2022/01/25 11:53:26;;;;;;;;;;;4.00;96.60;;;;;;5085825;28;19908;-72
2022/01/25 11:55:53;;;;;;;;;;;3.90;96.20;;;;;;5080122;28;20444;-72
2022/01/25 11:58:27;;;;;;;;;;;3.80;96.10;;;;;;5071869;28;20335;-72
2022/01/25 12:00:56;;;;;;;;;;;3.90;97.10;;;;;;5071747;28;19931;-72
2022/01/25 12:03:24;;;;;;;;;;;3.90;96.50;;;;;;5071333;28;20554;-73
2022/01/25 12:05:56;;;;;;;;;;;4.00;96.70;;;;;;5071563;28;20327;-74
2022/01/25 12:08:37;;;;;;;;;;;3.80;97.10;;;;;;5071462;28;20362;-72
2022/01/25 12:11:22;;;;;;;;;;;3.80;97.00;;;;;;5070310;28;19908;-72
2022/01/25 12:13:48;;;;;;;;;;;3.80;96.50;;;;;;5070854;28;20343;-73
2022/01/25 12:16:24;;;;;;;;;;;3.90;96.70;;;;;;5071335;28;19912;-72
2022/01/25 12:18:57;;;;;;;;;;;3.80;97.10;;;;;;5085115;28;20368;-72
2022/01/25 12:21:41;;;;;;;;;;;3.90;97.60;;;;;;5090800;28;20380;-72
2022/01/25 12:24:18;;;;;;;;;;;4.00;96.60;;;;;;5076348;28;19915;-72
2022/01/25 12:26:56;;;;;;;;;;;3.90;96.90;;;;;;5077027;28;19919;-72
2022/01/25 12:29:29;;;;;;;;;;;4.00;96.70;;;;;;5090660;28;20361;-72
2022/01/25 12:32:14;;;;;;;;;;;4.00;97.80;;;;;;5090389;28;20296;-72
2022/01/25 12:34:55;;;;;;;;;;;4.20;96.20;;;;;;5090328;28;20011;-72
2022/01/25 12:37:39;;;;;;;;;;;4.00;96.80;;;;;;5090390;28;20293;-74
2022/01/25 12:40:23;;;;;;;;;;;4.00;97.40;;;;;;5086896;28;19908;-73
2022/01/25 12:42:49;;;;;;;;;;;4.00;96.70;;;;;;5090468;28;19914;-73
2022/01/25 12:45:21;;;;;;;;;;;4.10;96.50;;;;;;5090095;28;19908;-71
2022/01/25 12:47:57;;;;;;;;;;;4.30;96.30;;;;;;5090582;28;20426;-72
2022/01/25 12:50:23;;;;;;;;;;;4.40;96.50;;;;;;5090587;28;19915;-72
2022/01/25 12:52:49;;;;;;;;;;;4.50;96.60;;;;;;5087611;28;19987;-72
2022/01/25 12:55:15;;;;;;;;;;;4.50;96.60;;;;;;5076390;28;20007;-72
2022/01/25 12:57:47;;;;;;;;;;;4.40;97.10;;;;;;5070968;28;19948;-72
2022/01/25 13:00:13;;;;;;;;;;;4.40;97.30;;;;;;5071048;28;20003;-72
2022/01/25 13:02:39;;;;;;;;;;;4.40;97.20;;;;;;5071067;28;20319;-72
2022/01/25 13:05:19;;;;;;;;;;;4.50;96.90;;;;;;5070527;28;19918;-72
2022/01/25 13:07:45;;;;;;;;;;;4.50;97.50;;;;;;5071118;28;19956;-71
2022/01/25 13:10:22;;;;;;;;;;;4.60;97.10;;;;;;5071171;28;19908;-72
2022/01/25 13:12:56;;;;;;;;;;;4.60;97.30;;;;;;5084169;28;19948;-71
2022/01/25 13:15:38;;;;;;;;;;;4.60;96.90;;;;;;5070547;28;19916;-72
2022/01/25 13:18:14;;;;;;;;;;;4.70;97.00;;;;;;5071138;28;20024;-72
2022/01/25 13:20:42;;;;;;;;;;;4.70;97.40;;;;;;5071465;28;19940;-73
2022/01/25 13:23:08;;;;;;;;;;;4.60;97.60;;;;;;5076095;28;19912;-72
2022/01/25 13:25:53;;;;;;;;;;;4.50;98.00;;;;;;5084231;28;20015;-72
2022/01/25 13:31:20;;;;;;;;;;;4.50;98.80;;;;;;5057465;28;19912;-72
2022/01/25 13:33:46;;;;;;;;;;;4.40;99.20;;;;;;5093731;28;19987;-73
2022/01/25 13:36:15;;;;;;;;;;;4.30;99.60;;;;;;5094051;28;20535;-72
2022/01/25 13:38:41;;;;;;;;;;;4.20;99.70;;;;;;5094268;28;19909;-72
2022/01/25 13:46:22;;;;;;;;;;;4.10;99.90;;;;;;5094247;28;19908;-72
2022/01/25 13:48:48;;;;;;;;;;;4.00;99.90;;;;;;5093736;28;20421;-72
2022/01/25 13:51:15;;;;;;;;;;;4.00;99.90;;;;;;5093277;28;19987;-72
2022/01/25 13:53:42;;;;;;;;;;;4.10;99.90;;;;;;5085499;28;19915;-72
2022/01/25 13:56:09;;;;;;;;;;;4.10;99.90;;;;;;5080191;28;19923;-72
2022/01/25 13:58:36;;;;;;;;;;;3.90;99.90;;;;;;5074310;28;19908;-74
2022/01/25 14:01:03;;;;;;;;;;;3.90;99.90;;;;;;5074578;28;20361;-72
2022/01/25 14:03:29;;;;;;;;;;;3.90;99.90;;;;;;5074198;28;20362;-73
2022/01/25 14:05:55;;;;;;;;;;;3.90;99.90;;;;;;5073919;28;19908;-72
2022/01/25 14:08:32;;;;;;;;;;;3.80;99.90;;;;;;5074240;28;19919;-72
2022/01/25 14:11:00;;;;;;;;;;;3.90;99.90;;;;;;5087844;28;20279;-72
2022/01/25 14:21:58;;;;;;;;;;;4.00;99.90;;;;;;5088176;28;19972;-72
2022/01/25 14:24:30;;;;;;;;;;;3.90;99.90;;;;;;5092923;28;19908;-73
2022/01/25 14:26:58;;;;;;;;;;;3.80;99.90;;;;;;5093295;28;19908;-72
2022/01/25 14:29:23;;;;;;;;;;;3.80;99.90;;;;;;5092949;28;19908;-73
2022/01/25 14:31:49;;;;;;;;;;;3.70;99.90;;;;;;5092876;28;20072;-72
2022/01/25 14:34:15;;;;;;;;;;;3.90;99.90;;;;;;5092333;28;19951;-72
2022/01/25 14:36:46;;;;;;;;;;;3.90;99.90;;;;;;5092906;28;20089;-72
2022/01/25 14:39:12;;;;;;;;;;;3.60;99.90;;;;;;5092863;28;19973;-72
2022/01/25 14:41:38;;;;;;;;;;;3.70;99.90;;;;;;5092870;28;19947;-72
2022/01/25 14:44:21;;;;;;;;;;;3.70;99.90;;;;;;5092431;28;19908;-73
2022/01/25 14:46:50;;;;;;;;;;;3.40;99.90;;;;;;5085975;28;19931;-72
2022/01/25 14:49:20;;;;;;;;;;;3.20;99.90;;;;;;5074143;28;20323;-72
2022/01/25 14:51:46;;;;;;;;;;;3.30;99.90;;;;;;5073543;28;19909;-72
2022/01/25 14:54:13;;;;;;;;;;;3.30;99.90;;;;;;5072752;28;20341;-73
2022/01/25 14:56:47;;;;;;;;;;;3.00;99.90;;;;;;5078664;28;19913;-72
2022/01/25 14:59:28;;;;;;;;;;;2.90;99.90;;;;;;5086057;28;20300;-72
2022/01/25 15:01:56;;;;;;;;;;;3.10;99.90;;;;;;5092722;28;19932;-74
2022/01/25 15:04:22;;;;;;;;;;;3.10;99.90;;;;;;5092099;28;20530;-72
2022/01/25 15:06:48;;;;;;;;;;;2.90;99.90;;;;;;5092358;28;19946;-72
2022/01/25 15:09:14;;;;;;;;;;;3.00;99.90;;;;;;5092204;28;19912;-72
2022/01/25 15:11:40;;;;;;;;;;;3.00;99.90;;;;;;5091637;28;20425;-72
2022/01/25 15:14:16;;;;;;;;;;;3.00;99.90;;;;;;5073060;28;20007;-72
2022/01/25 15:16:42;;;;;;;;;;;3.20;99.90;;;;;;5075306;28;19963;-72
2022/01/25 15:19:07;;;;;;;;;;;3.20;99.90;;;;;;5081317;28;19912;-72
2022/01/25 15:21:33;;;;;;;;;;;3.20;99.90;;;;;;5072642;28;19995;-72
2022/01/25 15:23:59;;;;;;;;;;;2.90;99.90;;;;;;5072201;28;19912;-72
2022/01/25 15:26:27;;;;;;;;;;;2.60;99.90;;;;;;5072792;28;19916;-73
2022/01/25 15:28:57;;;;;;;;;;;2.60;99.90;;;;;;5073938;28;19908;-72
2022/01/25 15:31:22;;;;;;;;;;;2.60;99.90;;;;;;5091795;28;19934;-72
2022/01/25 15:33:49;;;;;;;;;;;2.30;99.90;;;;;;5091445;28;19908;-72
2022/01/25 15:36:16;;;;;;;;;;;2.00;99.90;;;;;;5091362;28;19918;-74
2022/01/25 15:38:46;;;;;;;;;;;1.90;99.90;;;;;;5092284;28;19908;-72
2022/01/25 15:41:12;;;;;;;;;;;1.90;99.90;;;;;;5092176;28;19968;-73
2022/01/25 15:43:48;;;;;;;;;;;1.80;99.90;;;;;;5091216;28;20261;-72
2022/01/25 15:46:56;;;;;;;;;;;1.60;99.90;;;;;;5084230;28;19962;-72
2022/01/25 15:49:01;;;;;;;;;;;1.40;99.90;;;;;;5079329;28;19908;-72
2022/01/25 15:51:27;;;;;;;;;;;1.20;99.90;;;;;;5071883;28;20523;-72
2022/01/25 15:53:54;;;;;;;;;;;1.00;99.90;;;;;;5071715;28;19908;-72
2022/01/25 15:56:20;;;;;;;;;;;0.90;99.90;;;;;;5071651;28;20463;-72
2022/01/25 15:58:46;;;;;;;;;;;0.90;99.90;;;;;;5072007;28;19909;-72
2022/01/25 16:01:12;;;;;;;;;;;0.90;99.90;;;;;;5076581;28;19997;-72
2022/01/25 16:03:38;;;;;;;;;;;0.80;99.90;;;;;;5090989;28;19919;-72
2022/01/25 16:06:04;;;;;;;;;;;0.70;99.90;;;;;;5091409;28;19908;-72
2022/01/25 16:08:30;;;;;;;;;;;0.60;99.90;;;;;;5091355;28;19973;-75
2022/01/25 16:10:58;;;;;;;;;;;0.60;99.90;;;;;;5091366;28;20405;-71
2022/01/25 16:13:24;;;;;;;;;;;0.60;99.90;;;;;;5090677;28;20376;-73
2022/01/25 16:15:49;;;;;;;;;;;0.50;99.90;;;;;;5088264;28;19923;-72
2022/01/25 16:18:15;;;;;;;;;;;0.40;99.90;;;;;;5078613;28;19909;-72
2022/01/25 16:20:41;;;;;;;;;;;0.30;99.90;;;;;;5071781;28;19908;-72
2022/01/25 16:23:06;;;;;;;;;;;0.30;99.90;;;;;;5071538;28;20357;-72
2022/01/25 16:25:33;;;;;;;;;;;0.10;99.90;;;;;;5071657;28;19919;-73